Rina Amoretti — IBRR — position and weather

sailwx.info

Track history (hours):
 
Tides and Currents Weather Stations Pressure Air Temp Water Temp Dewpoint Dewpoint Depression Visibility Wind Speed Wind Dir Waves Ship Positions

Rina Amoretti

Last reported at 2014-Nov-19 17:23 UTC. Time now 2014-Nov-21 17:59 UTC.
Position N 40°20' E 014°17'.

Length 120 m; draft 6.5 m.

Type: Tanker. MMSI: 247197000.

Date/timePositionNaut miles runAvg speedWind from/ knotsBaromVisibWave heightAir tempDewpointWater temp
2014-Nov-19 17:23N 40°20' E 014°17'1113.5
2014-Nov-19 16:33N 40°30' E 014°10'1313.4
2014-Nov-19 15:34N 40°43' E 014°14'8 6.8
2014-Nov-19 14:24N 40°50' E 014°18'0 0.0
2014-Nov-19 13:30N 40°50' E 014°18'0 0.0
2014-Nov-19 12:21N 40°50' E 014°18'0 0.0
2014-Nov-19 11:33N 40°50' E 014°18'0 0.0
2014-Nov-19 10:33N 40°50' E 014°18'0 0.0
2014-Nov-19 08:27N 40°50' E 014°18'0 0.0
2014-Nov-19 07:27N 40°50' E 014°18'0 0.0
2014-Nov-19 06:33N 40°50' E 014°18'0 0.0
2014-Nov-19 04:27N 40°50' E 014°18'0 0.0
2014-Nov-19 02:33N 40°50' E 014°18'0 0.0
2014-Nov-19 00:33N 40°50' E 014°18'0 0.0
2014-Nov-18 23:30N 40°50' E 014°18'0 0.0
2014-Nov-18 22:33N 40°50' E 014°18'0 0.0
2014-Nov-18 21:27N 40°50' E 014°18'0 0.0
2014-Nov-18 20:27N 40°50' E 014°18'0 0.0
2014-Nov-18 17:21N 40°50' E 014°18'0 0.0
2014-Nov-18 16:15N 40°50' E 014°18'0 0.0
2014-Nov-18 15:27N 40°50' E 014°18'0 0.0
2014-Nov-18 14:33N 40°50' E 014°18'0 0.0
2014-Nov-18 13:21N 40°50' E 014°18'2 3.0
2014-Nov-18 12:33N 40°48' E 014°18'1212.3
2014-Nov-18 11:33N 40°36' E 014°12'1212.3
2014-Nov-18 10:33N 40°24' E 014°15'148 3.1
2014-Nov-16 10:15N 38°10' E 015°35'911.1
2014-Nov-16 09:25N 38°19' E 015°39'1213.6
2014-Nov-16 08:33N 38°19' E 015°24'1614.2
2014-Nov-16 07:25N 38°17' E 015°03'4114.0
2014-Nov-16 04:31N 38°13' E 014°12'1313.6
2014-Nov-16 03:33N 38°11' E 013°55'1413.5
2014-Nov-16 02:33N 38°10' E 013°38'10 9.7
2014-Nov-16 01:31N 38°06' E 013°26'0 0.1
2014-Nov-16 00:34N 38°06' E 013°26'0 0.0
2014-Nov-15 23:34N 38°06' E 013°26'0 0.0
2014-Nov-15 22:33N 38°06' E 013°26'0 0.0
2014-Nov-15 21:33N 38°06' E 013°26'0 0.0
2014-Nov-15 20:33N 38°06' E 013°26'0 0.0
2014-Nov-15 19:30N 38°06' E 013°26'0 0.0
2014-Nov-15 18:33N 38°06' E 013°26'0 0.0
2014-Nov-15 17:33N 38°06' E 013°26'0 0.0
2014-Nov-15 16:33N 38°06' E 013°26'0 0.0
2014-Nov-15 15:33N 38°06' E 013°26'0 0.0
2014-Nov-15 14:30N 38°06' E 013°26'0 0.0
2014-Nov-15 13:33N 38°06' E 013°26'0 0.0
2014-Nov-15 12:33N 38°06' E 013°26'0 0.0
2014-Nov-15 11:33N 38°06' E 013°26'0 0.0
2014-Nov-15 10:34N 38°06' E 013°26'2 2.0
2014-Nov-15 09:30N 38°07' E 013°29'0 0.1
2014-Nov-15 08:33N 38°07' E 013°29'0 0.0
2014-Nov-15 07:33N 38°07' E 013°29'0 0.0
2014-Nov-15 06:32N 38°07' E 013°29'0 0.0
2014-Nov-15 05:32N 38°07' E 013°29'0 0.0
2014-Nov-15 04:32N 38°07' E 013°29'0 0.0
2014-Nov-15 03:32N 38°07' E 013°29'0 0.1
2014-Nov-15 02:32N 38°07' E 013°29'0 0.0
2014-Nov-15 01:32N 38°07' E 013°29'0 0.0
2014-Nov-15 00:32N 38°07' E 013°29'0 0.0
2014-Nov-14 23:32N 38°07' E 013°29'0 0.0
2014-Nov-14 22:32N 38°07' E 013°29'0 0.0
2014-Nov-14 21:32N 38°07' E 013°29'0 0.0
2014-Nov-14 20:29N 38°07' E 013°29'0 0.0
2014-Nov-14 19:32N 38°07' E 013°29'0 0.1
2014-Nov-14 18:32N 38°07' E 013°29'0 0.1
2014-Nov-14 17:32N 38°07' E 013°29'0 0.0
2014-Nov-14 16:32N 38°07' E 013°29'0 0.0
2014-Nov-14 15:32N 38°07' E 013°29'0 0.0
2014-Nov-14 14:32N 38°07' E 013°29'0 0.0
2014-Nov-14 12:32N 38°07' E 013°29'0 0.0
2014-Nov-14 11:32N 38°07' E 013°29'0 0.0
2014-Nov-14 10:32N 38°07' E 013°29'0 0.0
2014-Nov-14 09:29N 38°07' E 013°29'0 0.0
2014-Nov-14 08:32N 38°07' E 013°29'0 0.0
2014-Nov-14 07:32N 38°07' E 013°29'0 0.0
2014-Nov-14 06:32N 38°07' E 013°29'0 0.0
2014-Nov-14 05:32N 38°07' E 013°29'0 0.0
2014-Nov-14 04:32N 38°07' E 013°29'0 0.0
2014-Nov-14 03:32N 38°07' E 013°29'0 0.0
2014-Nov-14 02:32N 38°07' E 013°29'0 0.0
2014-Nov-14 01:32N 38°07' E 013°29'0 0.0
2014-Nov-14 00:32N 38°07' E 013°29'0 0.0
2014-Nov-13 23:32N 38°07' E 013°29'0 0.0
2014-Nov-13 22:32N 38°07' E 013°29'0 0.0
2014-Nov-13 15:25N 38°07' E 013°29'0 0.0
2014-Nov-13 14:31N 38°07' E 013°29'0 0.0
2014-Nov-13 13:28N 38°07' E 013°29'0 0.0
2014-Nov-13 12:31N 38°07' E 013°29'0 0.0
2014-Nov-13 11:31N 38°07' E 013°29'0 0.1
2014-Nov-13 10:31N 38°07' E 013°29'7 7.0
2014-Nov-13 09:33N 38°10' E 013°37'1212.2
2014-Nov-13 08:33N 38°11' E 013°52'1212.1
2014-Nov-13 07:33N 38°12' E 014°07'  
2014-Nov-11 03:27N 38°03' E 015°33'15512.9
2014-Nov-10 15:25N 40°25' E 014°14'1112.7
2014-Nov-10 14:33N 40°36' E 014°11'1313.1
2014-Nov-10 13:33N 40°48' E 014°18'2 0.7
2014-Nov-10 10:29N 40°50' E 014°18'0 0.0
2014-Nov-10 07:11N 40°50' E 014°18'0 0.0
2014-Nov-10 06:17N 40°50' E 014°18'0 0.0
2014-Nov-10 05:23N 40°50' E 014°18'0 0.0
2014-Nov-10 04:23N 40°50' E 014°18'0 0.0
2014-Nov-10 03:23N 40°50' E 014°18'0 0.0
2014-Nov-10 02:05N 40°50' E 014°18'0 0.0
2014-Nov-10 01:23N 40°50' E 014°18'0 0.0
2014-Nov-10 00:17N 40°50' E 014°18'0 0.0
2014-Nov-09 23:29N 40°50' E 014°18'0 0.0
2014-Nov-09 22:23N 40°50' E 014°18'0 0.0
2014-Nov-09 21:05N 40°50' E 014°18'0 0.0
2014-Nov-09 20:29N 40°50' E 014°18'0 0.0
2014-Nov-09 18:28N 40°50' E 014°18'0 0.0
2014-Nov-09 17:28N 40°50' E 014°18'  
Track history (hours):
 
Tides and Currents Weather Stations Pressure Air Temp Water Temp Dewpoint Dewpoint Depression Visibility Wind Speed Wind Dir Waves Ship Positions

Rina Amoretti

Last reported at 2014-Nov-19 17:23 UTC. Time now 2014-Nov-21 17:59 UTC.
Position N 40°20' E 014°17'.

Length 120 m; draft 6.5 m.

Type: Tanker. MMSI: 247197000.

Date/timePositionNaut miles runAvg speedWind from/ knotsBaromVisibWave heightAir tempDewpointWater temp
2014-Nov-19 17:23N 40°20' E 014°17'1113.5
2014-Nov-19 16:33N 40°30' E 014°10'1313.4
2014-Nov-19 15:34N 40°43' E 014°14'8 6.8
2014-Nov-19 14:24N 40°50' E 014°18'0 0.0
2014-Nov-19 13:30N 40°50' E 014°18'0 0.0
2014-Nov-19 12:21N 40°50' E 014°18'0 0.0
2014-Nov-19 11:33N 40°50' E 014°18'0 0.0
2014-Nov-19 10:33N 40°50' E 014°18'0 0.0
2014-Nov-19 08:27N 40°50' E 014°18'0 0.0
2014-Nov-19 07:27N 40°50' E 014°18'0 0.0
2014-Nov-19 06:33N 40°50' E 014°18'0 0.0
2014-Nov-19 04:27N 40°50' E 014°18'0 0.0
2014-Nov-19 02:33N 40°50' E 014°18'0 0.0
2014-Nov-19 00:33N 40°50' E 014°18'0 0.0
2014-Nov-18 23:30N 40°50' E 014°18'0 0.0
2014-Nov-18 22:33N 40°50' E 014°18'0 0.0
2014-Nov-18 21:27N 40°50' E 014°18'0 0.0
2014-Nov-18 20:27N 40°50' E 014°18'0 0.0
2014-Nov-18 17:21N 40°50' E 014°18'0 0.0
2014-Nov-18 16:15N 40°50' E 014°18'0 0.0
2014-Nov-18 15:27N 40°50' E 014°18'0 0.0
2014-Nov-18 14:33N 40°50' E 014°18'0 0.0
2014-Nov-18 13:21N 40°50' E 014°18'2 3.0
2014-Nov-18 12:33N 40°48' E 014°18'1212.3
2014-Nov-18 11:33N 40°36' E 014°12'1212.3
2014-Nov-18 10:33N 40°24' E 014°15'148 3.1
2014-Nov-16 10:15N 38°10' E 015°35'911.1
2014-Nov-16 09:25N 38°19' E 015°39'1213.6
2014-Nov-16 08:33N 38°19' E 015°24'1614.2
2014-Nov-16 07:25N 38°17' E 015°03'4114.0
2014-Nov-16 04:31N 38°13' E 014°12'1313.6
2014-Nov-16 03:33N 38°11' E 013°55'1413.5
2014-Nov-16 02:33N 38°10' E 013°38'10 9.7
2014-Nov-16 01:31N 38°06' E 013°26'0 0.1
2014-Nov-16 00:34N 38°06' E 013°26'0 0.0
2014-Nov-15 23:34N 38°06' E 013°26'0 0.0
2014-Nov-15 22:33N 38°06' E 013°26'0 0.0
2014-Nov-15 21:33N 38°06' E 013°26'0 0.0
2014-Nov-15 20:33N 38°06' E 013°26'0 0.0
2014-Nov-15 19:30N 38°06' E 013°26'0 0.0
2014-Nov-15 18:33N 38°06' E 013°26'0 0.0
2014-Nov-15 17:33N 38°06' E 013°26'0 0.0
2014-Nov-15 16:33N 38°06' E 013°26'0 0.0
2014-Nov-15 15:33N 38°06' E 013°26'0 0.0
2014-Nov-15 14:30N 38°06' E 013°26'0 0.0
2014-Nov-15 13:33N 38°06' E 013°26'0 0.0
2014-Nov-15 12:33N 38°06' E 013°26'0 0.0
2014-Nov-15 11:33N 38°06' E 013°26'0 0.0
2014-Nov-15 10:34N 38°06' E 013°26'2 2.0
2014-Nov-15 09:30N 38°07' E 013°29'0 0.1
2014-Nov-15 08:33N 38°07' E 013°29'0 0.0
2014-Nov-15 07:33N 38°07' E 013°29'0 0.0
2014-Nov-15 06:32N 38°07' E 013°29'0 0.0
2014-Nov-15 05:32N 38°07' E 013°29'0 0.0
2014-Nov-15 04:32N 38°07' E 013°29'0 0.0
2014-Nov-15 03:32N 38°07' E 013°29'0 0.1
2014-Nov-15 02:32N 38°07' E 013°29'0 0.0
2014-Nov-15 01:32N 38°07' E 013°29'0 0.0
2014-Nov-15 00:32N 38°07' E 013°29'0 0.0
2014-Nov-14 23:32N 38°07' E 013°29'0 0.0
2014-Nov-14 22:32N 38°07' E 013°29'0 0.0
2014-Nov-14 21:32N 38°07' E 013°29'0 0.0
2014-Nov-14 20:29N 38°07' E 013°29'0 0.0
2014-Nov-14 19:32N 38°07' E 013°29'0 0.1
2014-Nov-14 18:32N 38°07' E 013°29'0 0.1
2014-Nov-14 17:32N 38°07' E 013°29'0 0.0
2014-Nov-14 16:32N 38°07' E 013°29'0 0.0
2014-Nov-14 15:32N 38°07' E 013°29'0 0.0
2014-Nov-14 14:32N 38°07' E 013°29'0 0.0
2014-Nov-14 12:32N 38°07' E 013°29'0 0.0
2014-Nov-14 11:32N 38°07' E 013°29'0 0.0
2014-Nov-14 10:32N 38°07' E 013°29'0 0.0
2014-Nov-14 09:29N 38°07' E 013°29'0 0.0
2014-Nov-14 08:32N 38°07' E 013°29'0 0.0
2014-Nov-14 07:32N 38°07' E 013°29'0 0.0
2014-Nov-14 06:32N 38°07' E 013°29'0 0.0
2014-Nov-14 05:32N 38°07' E 013°29'0 0.0
2014-Nov-14 04:32N 38°07' E 013°29'0 0.0
2014-Nov-14 03:32N 38°07' E 013°29'0 0.0
2014-Nov-14 02:32N 38°07' E 013°29'0 0.0
2014-Nov-14 01:32N 38°07' E 013°29'0 0.0
2014-Nov-14 00:32N 38°07' E 013°29'0 0.0
2014-Nov-13 23:32N 38°07' E 013°29'0 0.0
2014-Nov-13 22:32N 38°07' E 013°29'0 0.0
2014-Nov-13 15:25N 38°07' E 013°29'0 0.0
2014-Nov-13 14:31N 38°07' E 013°29'0 0.0
2014-Nov-13 13:28N 38°07' E 013°29'0 0.0
2014-Nov-13 12:31N 38°07' E 013°29'0 0.0
2014-Nov-13 11:31N 38°07' E 013°29'0 0.1
2014-Nov-13 10:31N 38°07' E 013°29'7 7.0
2014-Nov-13 09:33N 38°10' E 013°37'1212.2
2014-Nov-13 08:33N 38°11' E 013°52'1212.1
2014-Nov-13 07:33N 38°12' E 014°07'  
2014-Nov-11 03:27N 38°03' E 015°33'15512.9
2014-Nov-10 15:25N 40°25' E 014°14'1112.7
2014-Nov-10 14:33N 40°36' E 014°11'1313.1
2014-Nov-10 13:33N 40°48' E 014°18'2 0.7
2014-Nov-10 10:29N 40°50' E 014°18'0 0.0
2014-Nov-10 07:11N 40°50' E 014°18'0 0.0
2014-Nov-10 06:17N 40°50' E 014°18'0 0.0
2014-Nov-10 05:23N 40°50' E 014°18'0 0.0
2014-Nov-10 04:23N 40°50' E 014°18'0 0.0
2014-Nov-10 03:23N 40°50' E 014°18'0 0.0
2014-Nov-10 02:05N 40°50' E 014°18'0 0.0
2014-Nov-10 01:23N 40°50' E 014°18'0 0.0
2014-Nov-10 00:17N 40°50' E 014°18'0 0.0
2014-Nov-09 23:29N 40°50' E 014°18'0 0.0
2014-Nov-09 22:23N 40°50' E 014°18'0 0.0
2014-Nov-09 21:05N 40°50' E 014°18'0 0.0
2014-Nov-09 20:29N 40°50' E 014°18'0 0.0
2014-Nov-09 18:28N 40°50' E 014°18'0 0.0
2014-Nov-09 17:28N 40°50' E 014°18'  

Dump ship's entire track history